createdAt,value
2022-09-25T00:01:32.142Z,9.73
2022-09-25T00:03:59.736Z,12.47
2022-09-25T00:06:28.412Z,14.50
2022-09-25T00:08:57.008Z,10.97
2022-09-25T00:11:29.235Z,14.10
2022-09-25T00:14:15.063Z,9.80
2022-09-25T00:16:42.225Z,10.50
2022-09-25T00:19:40.877Z,11.97
2022-09-25T00:22:08.051Z,12.70
2022-09-25T00:24:35.280Z,11.63
2022-09-25T00:27:02.454Z,10.13
2022-09-25T00:29:31.137Z,13.13
2022-09-25T00:32:16.855Z,10.27
2022-09-25T00:34:44.221Z,10.40
2022-09-25T00:37:11.526Z,12.20
2022-09-25T00:39:38.852Z,12.57
2022-09-25T00:42:06.124Z,13.67
2022-09-25T00:44:56.760Z,11.00
2022-09-25T00:47:36.276Z,10.43
2022-09-25T00:50:39.108Z,13.53
2022-09-25T00:53:15.178Z,13.73
2022-09-25T00:55:45.177Z,7.50
2022-09-25T00:58:15.444Z,12.80
2022-09-25T01:00:43.001Z,9.60
2022-09-25T01:03:10.495Z,10.43
2022-09-25T01:05:41.929Z,9.93
2022-09-25T01:08:13.533Z,9.63
2022-09-25T01:10:42.138Z,12.43
2022-09-25T01:13:11.352Z,10.07
2022-09-25T01:15:41.854Z,8.20
2022-09-25T01:18:25.053Z,14.73
2022-09-25T01:21:23.262Z,10.83
2022-09-25T01:24:17.040Z,12.93
2022-09-25T01:27:10.801Z,13.60
2022-09-25T01:29:45.763Z,13.10
2022-09-25T01:32:33.713Z,11.37
2022-09-25T01:35:06.391Z,18.43
2022-09-25T01:37:42.040Z,15.17
2022-09-25T01:40:25.434Z,16.87
2022-09-25T01:42:57.843Z,17.40
2022-09-25T01:45:54.029Z,9.13
2022-09-25T01:48:26.573Z,12.60
2022-09-25T01:51:10.473Z,13.90
2022-09-25T01:53:47.867Z,17.67
2022-09-25T01:56:33.176Z,11.37
2022-09-25T01:59:07.728Z,12.90
2022-09-25T02:01:40.882Z,16.37
2022-09-25T02:04:23.281Z,14.80
2022-09-25T02:06:52.887Z,16.33
2022-09-25T02:09:25.611Z,11.57
2022-09-25T02:11:59.962Z,9.83
2022-09-25T02:14:39.256Z,13.57
2022-09-25T02:17:15.638Z,15.37
2022-09-25T02:20:01.320Z,11.53
2022-09-25T02:22:34.562Z,13.10
2022-09-25T02:25:12.670Z,9.93
2022-09-25T02:27:39.934Z,9.00
2022-09-25T02:30:07.602Z,14.53
2022-09-25T02:32:36.185Z,16.60
2022-09-25T02:35:05.235Z,14.13
2022-09-25T02:37:32.465Z,11.87
2022-09-25T02:40:02.230Z,12.13
2022-09-25T02:43:14.531Z,14.27
2022-09-25T02:45:56.761Z,8.63
2022-09-25T02:48:37.143Z,18.10
2022-09-25T02:51:33.624Z,11.40
2022-09-25T02:54:11.671Z,15.93
2022-09-25T02:56:52.803Z,10.33
2022-09-25T02:59:29.666Z,9.60
2022-09-25T03:02:16.940Z,11.13
2022-09-25T03:04:54.042Z,9.20
2022-09-25T03:07:21.586Z,10.83
2022-09-25T03:09:53.075Z,9.00
2022-09-25T03:12:20.286Z,15.37
2022-09-25T03:14:47.477Z,13.13
2022-09-25T03:17:17.631Z,14.33
2022-09-25T03:19:44.774Z,11.60
2022-09-25T03:22:12.131Z,13.70
2022-09-25T03:24:39.284Z,15.10
2022-09-25T03:27:06.356Z,15.60
2022-09-25T03:29:33.818Z,14.40
2022-09-25T03:32:02.199Z,15.97
2022-09-25T03:34:29.317Z,9.70
2022-09-25T03:36:56.398Z,10.70
2022-09-25T03:39:23.536Z,12.07
2022-09-25T03:41:50.692Z,11.30
2022-09-25T03:44:17.823Z,9.27
2022-09-25T03:46:47.676Z,16.13
2022-09-25T03:49:18.083Z,14.93
2022-09-25T03:51:46.876Z,12.30
2022-09-25T03:54:14.227Z,18.57
2022-09-25T03:56:44.285Z,14.00
2022-09-25T03:59:11.393Z,8.87
2022-09-25T04:01:39.018Z,17.20
2022-09-25T04:04:19.022Z,10.43
2022-09-25T04:06:46.034Z,10.83
2022-09-25T04:09:13.199Z,10.20
2022-09-25T04:11:40.292Z,16.67
2022-09-25T04:14:07.369Z,13.20
2022-09-25T04:16:34.727Z,10.53
2022-09-25T04:19:01.795Z,9.73
2022-09-25T04:21:28.861Z,14.53
2022-09-25T04:24:14.348Z,10.37
2022-09-25T04:26:43.766Z,10.87
2022-09-25T04:29:10.835Z,9.30
2022-09-25T04:31:37.933Z,10.63
2022-09-25T04:34:04.964Z,10.77
2022-09-25T04:36:32.070Z,7.67
2022-09-25T04:38:59.089Z,14.03
2022-09-25T04:41:26.154Z,17.23
2022-09-25T04:43:53.244Z,15.57
2022-09-25T04:46:22.675Z,15.70
2022-09-25T04:48:50.210Z,15.27
2022-09-25T04:51:17.360Z,12.33
2022-09-25T04:53:44.388Z,10.93
2022-09-25T04:56:16.397Z,13.13
2022-09-25T04:58:46.469Z,9.57
2022-09-25T05:01:13.676Z,12.60
2022-09-25T05:03:40.948Z,11.80
2022-09-25T05:06:08.465Z,13.20
2022-09-25T05:08:35.441Z,13.20
2022-09-25T05:11:03.552Z,13.67
2022-09-25T05:13:30.721Z,12.90
2022-09-25T05:15:58.112Z,8.73
2022-09-25T05:18:25.706Z,13.40
2022-09-25T05:20:54.366Z,8.47
2022-09-25T05:23:22.248Z,10.10
2022-09-25T05:26:00.709Z,12.63
2022-09-25T05:28:32.013Z,8.23
2022-09-25T05:31:03.885Z,10.40
2022-09-25T05:33:32.299Z,13.50
2022-09-25T05:36:07.665Z,12.63
2022-09-25T05:38:36.532Z,10.80
2022-09-25T05:41:12.845Z,16.33
2022-09-25T05:43:43.148Z,15.07
2022-09-25T05:46:11.258Z,7.63
2022-09-25T05:48:38.372Z,9.20
2022-09-25T05:51:05.477Z,9.37
2022-09-25T05:53:32.887Z,10.80
2022-09-25T05:56:02.130Z,13.13
2022-09-25T05:58:31.047Z,9.40
2022-09-25T06:01:03.232Z,11.63
2022-09-25T06:03:31.104Z,9.83
2022-09-25T06:05:59.805Z,13.83
2022-09-25T06:08:32.812Z,14.60
2022-09-25T06:11:02.350Z,10.67
2022-09-25T06:13:34.854Z,17.03
2022-09-25T06:16:02.948Z,11.27
2022-09-25T06:18:30.106Z,9.33
2022-09-25T06:21:02.579Z,15.37
2022-09-25T06:23:30.471Z,8.40
2022-09-25T06:26:06.120Z,8.63
2022-09-25T06:28:34.383Z,11.30
2022-09-25T06:31:02.821Z,11.77
2022-09-25T06:33:30.682Z,10.10
2022-09-25T06:35:58.000Z,12.57
2022-09-25T06:38:25.395Z,13.77
2022-09-25T06:40:52.781Z,11.07
2022-09-25T06:43:20.115Z,13.70
2022-09-25T06:45:51.266Z,13.00
2022-09-25T06:48:18.497Z,16.83
2022-09-25T06:50:48.946Z,12.30
2022-09-25T06:53:17.449Z,15.37
2022-09-25T06:55:45.334Z,15.00
2022-09-25T06:58:23.436Z,16.30
2022-09-25T07:00:52.428Z,15.83
2022-09-25T07:03:38.434Z,16.87
2022-09-25T07:06:08.074Z,17.10
2022-09-25T07:08:35.298Z,16.67
2022-09-25T07:11:02.770Z,14.93
2022-09-25T07:13:32.696Z,12.77
2022-09-25T07:16:02.228Z,16.60
2022-09-25T07:18:30.264Z,17.13
2022-09-25T07:21:15.011Z,16.63
2022-09-25T07:23:42.757Z,11.97
2022-09-25T07:26:22.704Z,14.80
2022-09-25T07:28:58.414Z,15.03
2022-09-25T07:31:27.952Z,15.17
2022-09-25T07:33:59.320Z,14.43
2022-09-25T07:36:26.557Z,13.63
2022-09-25T07:38:54.468Z,14.00
2022-09-25T07:41:24.039Z,13.00
2022-09-25T07:46:46.123Z,12.90
2022-09-25T07:49:14.105Z,12.73
2022-09-25T07:51:41.299Z,12.43
2022-09-25T07:54:08.861Z,12.50
2022-09-25T07:56:38.168Z,11.53
2022-09-25T07:59:05.452Z,13.00
2022-09-25T08:01:32.678Z,11.37
2022-09-25T08:04:04.930Z,12.13
2022-09-25T08:06:35.993Z,11.50
2022-09-25T08:09:08.126Z,11.07
2022-09-25T08:11:37.812Z,13.47
2022-09-25T08:14:05.024Z,11.70
2022-09-25T08:16:32.902Z,11.57
2022-09-25T08:18:59.896Z,11.63
2022-09-25T08:21:27.025Z,9.63
2022-09-25T08:23:55.364Z,9.93
2022-09-25T08:26:23.109Z,12.23
2022-09-25T08:28:50.961Z,8.83
2022-09-25T08:31:18.386Z,10.67
2022-09-25T08:33:50.195Z,8.13
2022-09-25T08:36:18.202Z,10.23
2022-09-25T08:38:45.701Z,10.30
2022-09-25T08:41:24.498Z,10.53
2022-09-25T08:44:04.934Z,12.40
2022-09-25T08:46:59.186Z,9.90
2022-09-25T08:49:31.197Z,10.50
2022-09-25T08:52:03.107Z,14.47
2022-09-25T08:54:33.965Z,13.23
2022-09-25T08:57:37.247Z,13.17
2022-09-25T09:00:21.800Z,11.70
2022-09-25T09:02:54.938Z,12.40
2022-09-25T09:05:27.646Z,13.87
2022-09-25T09:08:00.848Z,13.37
2022-09-25T09:10:36.156Z,11.50
2022-09-25T09:13:18.425Z,11.80
2022-09-25T09:15:54.246Z,10.63
2022-09-25T09:18:27.405Z,13.43
2022-09-25T09:21:04.277Z,15.47
2022-09-25T09:23:48.898Z,11.97
2022-09-25T09:26:40.367Z,12.03
2022-09-25T09:29:41.086Z,13.30
2022-09-25T09:32:11.377Z,11.27
2022-09-25T09:35:33.485Z,11.10
2022-09-25T09:38:16.395Z,10.80
2022-09-25T09:41:24.355Z,12.80
2022-09-25T09:43:58.769Z,9.70
2022-09-25T09:46:44.784Z,9.40
2022-09-25T09:49:33.830Z,11.53
2022-09-25T09:52:22.746Z,10.97
2022-09-25T09:54:59.785Z,10.23
2022-09-25T09:57:31.339Z,10.17
2022-09-25T10:00:13.750Z,10.57
2022-09-25T10:02:46.331Z,9.77
2022-09-25T10:05:27.961Z,11.17
2022-09-25T10:07:55.272Z,8.10
2022-09-25T10:10:37.380Z,9.77
2022-09-25T10:13:11.276Z,9.17
2022-09-25T10:15:48.703Z,8.67
2022-09-25T10:18:16.726Z,10.07
2022-09-25T10:20:55.431Z,9.50
2022-09-25T10:23:47.043Z,8.93
2022-09-25T10:26:33.380Z,10.63
2022-09-25T10:29:02.514Z,7.37
2022-09-25T10:31:40.661Z,7.77
2022-09-25T10:34:13.955Z,8.57
2022-09-25T10:36:47.047Z,7.37
2022-09-25T10:39:46.271Z,6.87
2022-09-25T10:42:46.134Z,7.30
2022-09-25T10:45:32.741Z,7.67
2022-09-25T10:48:19.015Z,5.97
2022-09-25T10:51:06.702Z,6.90
2022-09-25T10:53:35.075Z,8.87
2022-09-25T10:56:12.635Z,6.30
2022-09-25T10:59:02.350Z,8.97
2022-09-25T11:01:39.353Z,8.17
2022-09-25T11:04:16.583Z,6.23
2022-09-25T11:06:52.495Z,6.60
2022-09-25T11:09:22.810Z,5.93
2022-09-25T11:11:54.385Z,6.03
2022-09-25T11:14:32.550Z,5.03
2022-09-25T11:17:02.359Z,5.07
2022-09-25T11:19:32.355Z,5.30
2022-09-25T11:22:17.827Z,6.33
2022-09-25T11:24:48.415Z,7.10
2022-09-25T11:27:26.688Z,6.40
2022-09-25T11:30:02.842Z,5.00
2022-09-25T11:32:52.842Z,4.27
2022-09-25T11:35:33.197Z,4.53
2022-09-25T11:38:03.711Z,5.60
2022-09-25T11:41:11.432Z,4.73
2022-09-25T11:44:12.498Z,4.80
2022-09-25T11:46:46.914Z,4.83
2022-09-25T11:49:17.278Z,7.13
2022-09-25T11:52:16.558Z,4.90
2022-09-25T11:55:05.886Z,4.90
2022-09-25T11:57:51.786Z,4.37
2022-09-25T12:00:47.335Z,5.00
2022-09-25T12:03:35.361Z,4.53
2022-09-25T12:06:29.909Z,4.87
2022-09-25T12:09:16.533Z,4.30
2022-09-25T12:12:01.979Z,3.90
2022-09-25T12:15:01.791Z,3.73
2022-09-25T12:17:41.073Z,3.60
2022-09-25T12:20:27.551Z,8.20
2022-09-25T12:23:19.948Z,5.37
2022-09-25T12:26:15.074Z,4.40
2022-09-25T12:29:00.399Z,4.37
2022-09-25T12:31:39.570Z,3.97
2022-09-25T12:34:26.911Z,4.97
2022-09-25T12:37:04.454Z,4.27
2022-09-25T12:39:45.160Z,3.67
2022-09-25T12:42:19.711Z,3.83
2022-09-25T12:44:56.419Z,4.07
2022-09-25T12:47:41.382Z,4.43
2022-09-25T12:50:28.706Z,4.50
2022-09-25T12:53:20.753Z,4.57
2022-09-25T12:55:58.408Z,5.10
2022-09-25T12:58:44.915Z,5.30
2022-09-25T13:01:45.999Z,3.43
2022-09-25T13:04:34.715Z,4.17
2022-09-25T13:07:17.973Z,3.97
2022-09-25T13:09:47.303Z,3.50
2022-09-25T13:12:49.824Z,3.57
2022-09-25T13:15:23.986Z,3.70
2022-09-25T13:17:51.426Z,3.30
2022-09-25T13:20:42.425Z,3.40
2022-09-25T13:23:16.977Z,4.07
2022-09-25T13:26:02.716Z,2.77
2022-09-25T13:29:00.700Z,5.43
2022-09-25T13:31:30.457Z,2.50
2022-09-25T13:34:05.622Z,3.13
2022-09-25T13:36:47.903Z,3.87
2022-09-25T13:39:44.797Z,2.50
2022-09-25T13:42:55.588Z,2.73
2022-09-25T13:45:34.885Z,2.37
2022-09-25T13:48:32.146Z,2.20
2022-09-25T13:51:33.864Z,2.97
2022-09-25T13:54:24.168Z,2.60
2022-09-25T13:56:53.463Z,2.13
2022-09-25T13:59:39.143Z,2.27
2022-09-25T14:02:44.081Z,2.50
2022-09-25T14:05:20.981Z,3.20
2022-09-25T14:07:51.277Z,3.20
2022-09-25T14:10:19.190Z,3.53
2022-09-25T14:12:48.787Z,2.60
2022-09-25T14:15:19.011Z,2.77
2022-09-25T14:17:50.903Z,2.83
2022-09-25T14:20:31.039Z,2.37
2022-09-25T14:23:03.354Z,2.10
2022-09-25T14:25:42.760Z,1.90
2022-09-25T14:28:25.958Z,2.07
2022-09-25T14:31:14.628Z,2.10
2022-09-25T14:34:12.664Z,2.30
2022-09-25T14:37:07.034Z,2.20
2022-09-25T14:39:46.196Z,2.10
2022-09-25T14:42:37.537Z,2.13
2022-09-25T14:45:40.676Z,15.73
2022-09-25T14:48:21.546Z,2.80
2022-09-25T14:50:53.796Z,2.13
2022-09-25T14:53:53.994Z,2.20
2022-09-25T14:56:22.580Z,2.33
2022-09-25T14:58:54.667Z,2.43
2022-09-25T15:01:29.544Z,3.10
2022-09-25T15:04:05.557Z,2.17
2022-09-25T15:06:39.264Z,2.37
2022-09-25T15:09:47.719Z,3.40
2022-09-25T15:12:31.143Z,2.43
2022-09-25T15:15:11.447Z,2.50
2022-09-25T15:17:49.514Z,2.23
2022-09-25T15:20:19.720Z,2.53
2022-09-25T15:22:57.119Z,2.73
2022-09-25T15:25:28.999Z,3.47
2022-09-25T15:28:00.298Z,2.83
2022-09-25T15:30:28.413Z,2.47
2022-09-25T15:33:00.527Z,2.50
2022-09-25T15:35:57.025Z,2.83
2022-09-25T15:38:40.015Z,2.60
2022-09-25T15:41:09.602Z,2.50
2022-09-25T15:43:36.693Z,2.70
2022-09-25T15:46:10.268Z,2.37
2022-09-25T15:48:41.383Z,3.47
2022-09-25T15:51:24.556Z,3.20
2022-09-25T15:54:04.467Z,3.30
2022-09-25T15:56:49.991Z,2.60
2022-09-25T15:59:21.366Z,2.80
2022-09-25T16:02:07.763Z,2.93
2022-09-25T16:04:49.250Z,2.77
2022-09-25T16:07:20.650Z,2.70
2022-09-25T16:09:48.395Z,3.80
2022-09-25T16:12:25.598Z,4.10
2022-09-25T16:14:55.189Z,2.77
2022-09-25T16:17:29.424Z,2.83
2022-09-25T16:20:02.029Z,2.20
2022-09-25T16:22:37.556Z,2.80
2022-09-25T16:25:31.109Z,8.23
2022-09-25T16:28:08.450Z,4.50
2022-09-25T16:30:35.818Z,3.53
2022-09-25T16:33:23.367Z,5.93
2022-09-25T16:36:10.603Z,3.60
2022-09-25T16:38:38.496Z,4.53
2022-09-25T16:41:14.585Z,4.03
2022-09-25T16:43:44.232Z,3.37
2022-09-25T16:46:19.551Z,4.93
2022-09-25T16:48:58.816Z,5.63
2022-09-25T16:51:26.983Z,4.97
2022-09-25T16:53:59.922Z,5.23
2022-09-25T16:56:29.765Z,3.50
2022-09-25T16:58:58.469Z,4.60
2022-09-25T17:01:27.758Z,3.20
2022-09-25T17:03:59.759Z,7.23
2022-09-25T17:06:40.811Z,4.20
2022-09-25T17:09:12.393Z,7.77
2022-09-25T17:11:44.537Z,6.83
2022-09-25T17:14:24.934Z,5.00
2022-09-25T17:16:53.794Z,3.77
2022-09-25T17:19:21.723Z,6.20
2022-09-25T17:21:51.574Z,5.07
2022-09-25T17:24:25.207Z,4.17
2022-09-25T17:26:53.228Z,6.00
2022-09-25T17:29:21.166Z,6.27
2022-09-25T17:31:48.233Z,5.57
2022-09-25T17:34:16.869Z,6.33
2022-09-25T17:36:44.768Z,5.60
2022-09-25T17:39:12.136Z,4.80
2022-09-25T17:41:39.933Z,5.60
2022-09-25T17:44:09.079Z,9.87
2022-09-25T17:46:36.431Z,6.67
2022-09-25T17:49:04.065Z,4.53
2022-09-25T17:51:31.270Z,3.90
2022-09-25T17:54:02.106Z,6.87
2022-09-25T17:56:34.157Z,6.10
2022-09-25T17:59:02.311Z,7.07
2022-09-25T18:01:36.537Z,3.17
2022-09-25T18:04:32.949Z,5.13
2022-09-25T18:07:00.056Z,2.70
2022-09-25T18:09:27.205Z,3.20
2022-09-25T18:11:56.699Z,7.07
2022-09-25T18:14:24.649Z,3.80
2022-09-25T18:16:51.775Z,5.20
2022-09-25T18:19:38.519Z,5.60
2022-09-25T18:22:19.067Z,3.63
2022-09-25T18:24:56.743Z,3.70
2022-09-25T18:27:26.947Z,3.73
2022-09-25T18:30:01.025Z,3.10
2022-09-25T18:32:28.206Z,2.73
2022-09-25T18:34:55.281Z,6.77
2022-09-25T18:37:22.423Z,4.13
2022-09-25T18:39:49.986Z,4.97
2022-09-25T18:42:18.094Z,3.27
2022-09-25T18:44:48.417Z,3.87
2022-09-25T18:47:15.582Z,3.10
2022-09-25T18:49:43.710Z,3.00
2022-09-25T18:52:11.654Z,4.43
2022-09-25T18:54:42.233Z,7.93
2022-09-25T18:57:11.740Z,4.03
2022-09-25T18:59:45.140Z,4.10
2022-09-25T19:02:20.150Z,5.53
2022-09-25T19:04:48.190Z,4.53
2022-09-25T19:07:15.905Z,9.10
2022-09-25T19:09:43.187Z,10.00
2022-09-25T19:12:46.279Z,6.40
2022-09-25T19:15:22.518Z,7.33
2022-09-25T19:17:56.311Z,5.40
2022-09-25T19:20:59.650Z,8.67
2022-09-25T19:23:34.254Z,11.13
2022-09-25T19:26:06.793Z,19.73
2022-09-25T19:28:48.979Z,14.80
2022-09-25T19:31:25.954Z,20.67
2022-09-25T19:33:58.181Z,13.60
2022-09-25T19:36:34.926Z,12.13
2022-09-25T19:39:03.347Z,15.93
2022-09-25T19:41:52.829Z,9.93
2022-09-25T19:44:26.457Z,19.50
2022-09-25T19:47:08.718Z,9.20
2022-09-25T19:49:38.234Z,7.30
2022-09-25T19:52:12.071Z,7.47
2022-09-25T19:54:43.788Z,4.00
2022-09-25T19:57:14.801Z,7.17
2022-09-25T19:59:53.601Z,3.53
2022-09-25T20:02:24.551Z,8.87
2022-09-25T20:04:56.398Z,3.97
2022-09-25T20:07:26.700Z,8.53
2022-09-25T20:10:06.018Z,7.30
2022-09-25T20:12:36.855Z,8.33
2022-09-25T20:15:13.867Z,8.73
2022-09-25T20:17:49.526Z,8.37
2022-09-25T20:20:26.307Z,8.23
2022-09-25T20:22:59.153Z,5.60
2022-09-25T20:25:29.944Z,5.00
2022-09-25T20:28:00.435Z,8.80
2022-09-25T20:30:39.032Z,12.73
2022-09-25T20:33:09.393Z,6.83
2022-09-25T20:35:36.617Z,5.73
2022-09-25T20:38:03.756Z,7.40
2022-09-25T20:40:33.759Z,6.33
2022-09-25T20:43:00.951Z,9.00
2022-09-25T20:45:28.108Z,9.53
2022-09-25T20:48:03.988Z,8.53
2022-09-25T20:50:31.559Z,8.97
2022-09-25T20:52:58.697Z,7.10
2022-09-25T20:55:25.823Z,6.33
2022-09-25T20:57:52.851Z,11.73
2022-09-25T21:00:20.390Z,8.87
2022-09-25T21:02:47.686Z,6.37
2022-09-25T21:05:14.828Z,9.23
2022-09-25T21:07:42.171Z,4.43
2022-09-25T21:10:09.765Z,5.53
2022-09-25T21:12:36.883Z,8.10
2022-09-25T21:15:04.415Z,8.37
2022-09-25T21:17:31.808Z,5.13
2022-09-25T21:20:00.176Z,5.83
2022-09-25T21:22:27.364Z,7.93
2022-09-25T21:25:00.364Z,7.70
2022-09-25T21:27:30.315Z,5.10
2022-09-25T21:29:58.576Z,9.90
2022-09-25T21:32:25.689Z,8.83
2022-09-25T21:34:52.787Z,8.37
2022-09-25T21:37:19.853Z,5.67
2022-09-25T21:39:47.014Z,7.60
2022-09-25T21:42:14.166Z,6.13
2022-09-25T21:44:41.293Z,8.00
2022-09-25T21:47:08.390Z,7.10
2022-09-25T21:49:35.725Z,6.70
2022-09-25T21:52:02.750Z,4.90
2022-09-25T21:54:31.299Z,6.67
2022-09-25T21:56:58.413Z,8.20
2022-09-25T21:59:25.764Z,7.50
2022-09-25T22:01:52.853Z,9.43
2022-09-25T22:04:20.037Z,6.20
2022-09-25T22:06:48.191Z,6.87
2022-09-25T22:09:20.473Z,7.93
2022-09-25T22:11:51.176Z,5.80
2022-09-25T22:14:20.200Z,6.50
2022-09-25T22:16:50.507Z,9.53
2022-09-25T22:19:21.780Z,6.63
2022-09-25T22:21:50.392Z,4.37
2022-09-25T22:24:18.012Z,6.23
2022-09-25T22:26:46.981Z,7.50
2022-09-25T22:29:16.103Z,8.37
2022-09-25T22:31:44.408Z,6.00
2022-09-25T22:34:27.055Z,8.93
2022-09-25T22:36:59.501Z,4.43
2022-09-25T22:39:28.247Z,4.13
2022-09-25T22:41:55.929Z,5.43
2022-09-25T22:44:24.062Z,4.10
2022-09-25T22:46:51.429Z,6.23
2022-09-25T22:49:18.944Z,8.00
2022-09-25T22:51:46.092Z,6.97
2022-09-25T22:54:14.596Z,6.30
2022-09-25T22:56:42.207Z,7.17
2022-09-25T22:59:13.456Z,4.10
2022-09-25T23:01:52.585Z,6.57
2022-09-25T23:04:24.300Z,7.93
2022-09-25T23:06:52.366Z,5.03
2022-09-25T23:09:27.024Z,5.27
2022-09-25T23:11:55.806Z,4.50
2022-09-25T23:14:26.286Z,6.77
2022-09-25T23:16:54.668Z,3.73
2022-09-25T23:19:22.535Z,4.83
2022-09-25T23:21:51.759Z,5.37
2022-09-25T23:24:20.058Z,7.23
2022-09-25T23:26:51.524Z,3.13
2022-09-25T23:29:20.367Z,3.00
2022-09-25T23:31:48.625Z,5.03
2022-09-25T23:34:18.952Z,4.37
2022-09-25T23:36:46.464Z,6.23
2022-09-25T23:39:17.810Z,8.20
2022-09-25T23:41:48.328Z,5.67
2022-09-25T23:44:15.638Z,4.50
2022-09-25T23:46:44.068Z,4.80
2022-09-25T23:49:11.752Z,6.63
2022-09-25T23:51:39.408Z,3.60
2022-09-25T23:54:09.781Z,5.83
2022-09-25T23:56:37.089Z,5.80
2022-09-25T23:59:05.280Z,4.17
